Pirenopolis, Brazil
Current Conditions -  °F | °C
As of 5:00 PM on Thursday 30 Oct 2014 (Local Time) from SBAN Reporting Station
Scattered Clouds Scattered Clouds  
Wind Chill: 77°   Ceiling: Unl
Heat Index: 79°   Visibility: 6mi
Dew Point: 61°   Wind: 7mph
Humidity: 57%   Direction: 330°NNW
Pressure: 29.94"   Gusts: NA
Location:  15.85°S, 48.96°W
Report Text: SBAN 301900Z 33006KT 9999 SCT025 FEW030TCU SCT100 25/16 Q1014
Loading
Personal Weather Stations






























Interactive Weather Map
Tropical Storm Tracking
New forecast layout! Learn more

10-Day Weather Forecast

Advertisements
Track Severe Weather on mobile